Impacts TAF Board
For situational awareness. Not to be used for flight planning purposes.
IDs:

KLAX - Los Angeles Intl, CA, US

Issued at 1315 UTC 10 Aug 2022
Updated at 1404 UTC 10 Aug 2022
Potential Impact None Slight Moderate High
Time1353Z 10/15Z 10/16Z 10/17Z 10/18Z 10/19Z 10/20Z 10/21Z 10/22Z 10/23Z 11/00Z 11/01Z 11/02Z 11/03Z>>
Type OBS PRVL PRVL PRVL PRVL PRVL PRVL PRVL PRVL PRVL PRVL PRVL PRVL PRVL
VIS 10 >6 >6 >6 >6 >6 >6 >6 >6 >6 >6 >6 >6 >6
CIG -- -- -- -- -- -- -- -- -- -- -- -- -- --
Cover FEW SCT SCT SCT SCT SCT SCT SCT SCT SCT SCT SCT SCT SCT
FltCat VFR VFR VFR VFR VFR VFR VFR VFR VFR VFR VFR VFR VFR VFR
WX -- -- -- -- -- -- -- -- -- -- -- -- -- --
WDir VRB VRB VRB 260 260 260 260 260 260 260 260 260 260 260
WSpd 0 3 3 7 7 7 12 12 12 12 12 12 12 6
WGst -- -- -- -- -- -- -- -- -- -- -- -- -- --
WSHgt -- -- -- -- -- -- -- -- -- -- -- -- -- --
WSDir -- -- -- -- -- -- -- -- -- -- -- -- -- --
WSSpd -- -- -- -- -- -- -- -- -- -- -- -- -- --
Raw TAF
KLAX 101315Z 1013/1118 VRB03KT P6SM SCT250
  FM101700 26007KT P6SM SCT250
  FM102000 26012KT P6SM SCT250
  FM110300 26006KT P6SM SCT250
  FM110600 VRB03KT P6SM SCT250
  FM111700 26007KT P6SM SCT250


Raw METAR
KLAX 101353Z 00000KT 10SM FEW180 FEW250 22/18 A2998 RMK AO2 SLP151 T02170183 $
KLAX 101253Z 25005KT 10SM FEW200 FEW250 21/18 A2996 RMK AO2 SLP144 T02110178 $
KLAX 101153Z 24004KT 10SM FEW200 FEW250 21/18 A2996 RMK AO2 SLP142 T02110178 10233 20211 56003 $

METAR Board
Radar Display
Forecast Discussion
For situational awareness. Not to be used for flight planning purposes.